sensor_id;sensor_type;location;lat;lon;timestamp;pressure;altitude;pressure_sealevel;temperature;humidity
13476;BME280;6810;63.824;20.288;2023-03-25T00:00:14;99300.34;;;-5.10;74.39
13476;BME280;6810;63.824;20.288;2023-03-25T00:02:44;99295.31;;;-5.17;74.92
13476;BME280;6810;63.824;20.288;2023-03-25T00:05:12;99296.19;;;-5.18;74.10
13476;BME280;6810;63.824;20.288;2023-03-25T00:07:43;99303.97;;;-5.17;74.20
13476;BME280;6810;63.824;20.288;2023-03-25T00:10:12;99304.84;;;-5.19;74.49
13476;BME280;6810;63.824;20.288;2023-03-25T00:12:40;99246.72;;;-5.55;74.13
13476;BME280;6810;63.824;20.288;2023-03-25T00:15:10;99295.50;;;-5.28;75.23
13476;BME280;6810;63.824;20.288;2023-03-25T00:17:37;99306.72;;;-5.26;74.32
13476;BME280;6810;63.824;20.288;2023-03-25T00:20:06;99299.03;;;-5.30;74.35
13476;BME280;6810;63.824;20.288;2023-03-25T00:22:36;99300.81;;;-5.34;74.35
13476;BME280;6810;63.824;20.288;2023-03-25T00:25:12;99307.69;;;-5.32;74.36
13476;BME280;6810;63.824;20.288;2023-03-25T00:27:44;99295.72;;;-5.40;74.93
13476;BME280;6810;63.824;20.288;2023-03-25T00:30:14;99309.53;;;-5.37;74.32
13476;BME280;6810;63.824;20.288;2023-03-25T00:32:42;99308.69;;;-5.39;74.50
13476;BME280;6810;63.824;20.288;2023-03-25T00:35:12;99315.63;;;-5.41;74.59
13476;BME280;6810;63.824;20.288;2023-03-25T00:37:39;99270.31;;;-5.70;74.67
13476;BME280;6810;63.824;20.288;2023-03-25T00:40:07;99308.78;;;-5.45;74.90
13476;BME280;6810;63.824;20.288;2023-03-25T00:42:34;99275.47;;;-5.67;74.37
13476;BME280;6810;63.824;20.288;2023-03-25T00:45:02;99310.59;;;-5.50;74.84
13476;BME280;6810;63.824;20.288;2023-03-25T00:47:29;99310.66;;;-5.53;74.79
13476;BME280;6810;63.824;20.288;2023-03-25T00:49:57;99275.53;;;-5.72;74.69
13476;BME280;6810;63.824;20.288;2023-03-25T00:52:24;99309.03;;;-5.58;74.60
13476;BME280;6810;63.824;20.288;2023-03-25T00:54:51;99307.28;;;-5.59;74.72
13476;BME280;6810;63.824;20.288;2023-03-25T00:57:20;99303.88;;;-5.61;75.02
13476;BME280;6810;63.824;20.288;2023-03-25T00:59:48;99310.00;;;-5.65;74.62
13476;BME280;6810;63.824;20.288;2023-03-25T01:02:17;99282.59;;;-5.81;74.36
13476;BME280;6810;63.824;20.288;2023-03-25T01:04:44;99302.22;;;-5.67;74.22
13476;BME280;6810;63.824;20.288;2023-03-25T01:07:12;99313.56;;;-5.72;74.59
13476;BME280;6810;63.824;20.288;2023-03-25T01:09:42;99317.88;;;-5.71;74.75
13476;BME280;6810;63.824;20.288;2023-03-25T01:12:14;99311.00;;;-5.74;74.86
13476;BME280;6810;63.824;20.288;2023-03-25T01:14:41;99312.78;;;-5.77;74.74
13476;BME280;6810;63.824;20.288;2023-03-25T01:17:08;99324.06;;;-5.80;74.73
13476;BME280;6810;63.824;20.288;2023-03-25T01:19:36;99331.84;;;-5.80;74.45
13476;BME280;6810;63.824;20.288;2023-03-25T01:22:02;99322.34;;;-5.81;74.89
13476;BME280;6810;63.824;20.288;2023-03-25T01:24:30;99325.00;;;-5.84;74.76
13476;BME280;6810;63.824;20.288;2023-03-25T01:26:57;99328.50;;;-5.85;74.90
13476;BME280;6810;63.824;20.288;2023-03-25T01:29:26;99335.41;;;-5.85;74.86
13476;BME280;6810;63.824;20.288;2023-03-25T01:31:54;99314.88;;;-5.99;74.92
13476;BME280;6810;63.824;20.288;2023-03-25T01:34:22;99329.47;;;-5.90;74.93
13476;BME280;6810;63.824;20.288;2023-03-25T01:36:49;99332.91;;;-5.91;75.00
13476;BME280;6810;63.824;20.288;2023-03-25T01:39:17;99340.75;;;-5.94;74.89
13476;BME280;6810;63.824;20.288;2023-03-25T01:41:47;99338.16;;;-5.96;74.79
13476;BME280;6810;63.824;20.288;2023-03-25T01:46:49;99349.44;;;-5.98;75.14
13476;BME280;6810;63.824;20.288;2023-03-25T01:49:22;99339.13;;;-6.01;74.41
13476;BME280;6810;63.824;20.288;2023-03-25T01:51:56;99340.88;;;-6.03;74.56
13476;BME280;6810;63.824;20.288;2023-03-25T01:54:25;99337.47;;;-6.05;74.62
13476;BME280;6810;63.824;20.288;2023-03-25T01:56:53;99341.81;;;-6.07;74.63
13476;BME280;6810;63.824;20.288;2023-03-25T01:59:24;99337.53;;;-6.11;74.54
13476;BME280;6810;63.824;20.288;2023-03-25T02:01:54;99336.72;;;-6.13;74.60
13476;BME280;6810;63.824;20.288;2023-03-25T02:04:44;99343.63;;;-6.14;74.67
13476;BME280;6810;63.824;20.288;2023-03-25T02:07:17;99338.56;;;-6.23;74.84
13476;BME280;6810;63.824;20.288;2023-03-25T02:09:45;99309.38;;;-6.37;74.35
13476;BME280;6810;63.824;20.288;2023-03-25T02:12:12;99344.66;;;-6.25;74.82
13476;BME280;6810;63.824;20.288;2023-03-25T02:14:39;99351.53;;;-6.24;74.41
13476;BME280;6810;63.824;20.288;2023-03-25T02:19:58;99355.94;;;-6.29;74.65
13476;BME280;6810;63.824;20.288;2023-03-25T02:22:54;99354.25;;;-6.33;74.67
13476;BME280;6810;63.824;20.288;2023-03-25T02:34:24;99371.69;;;-6.44;74.63
13476;BME280;6810;63.824;20.288;2023-03-25T02:39:46;99368.31;;;-6.52;74.52
13476;BME280;6810;63.824;20.288;2023-03-25T02:42:32;99372.69;;;-6.56;74.78
13476;BME280;6810;63.824;20.288;2023-03-25T02:47:56;99376.22;;;-6.64;74.65
13476;BME280;6810;63.824;20.288;2023-03-25T02:50:33;99379.69;;;-6.65;74.69
13476;BME280;6810;63.824;20.288;2023-03-25T02:53:04;99390.97;;;-6.68;74.50
13476;BME280;6810;63.824;20.288;2023-03-25T02:55:39;99384.13;;;-6.76;74.40
13476;BME280;6810;63.824;20.288;2023-03-25T02:58:10;99300.13;;;-7.27;74.79
13476;BME280;6810;63.824;20.288;2023-03-25T03:00:39;99388.44;;;-6.75;74.54
13476;BME280;6810;63.824;20.288;2023-03-25T03:03:07;99375.59;;;-6.86;74.79
13476;BME280;6810;63.824;20.288;2023-03-25T03:05:37;99392.81;;;-6.80;74.60
13476;BME280;6810;63.824;20.288;2023-03-25T03:19:41;99405.03;;;-6.93;74.57
13476;BME280;6810;63.824;20.288;2023-03-25T03:25:01;99399.91;;;-6.99;74.67
13476;BME280;6810;63.824;20.288;2023-03-25T03:32:51;99410.34;;;-7.05;74.45
13476;BME280;6810;63.824;20.288;2023-03-25T03:35:25;99391.47;;;-7.18;74.31
13476;BME280;6810;63.824;20.288;2023-03-25T03:38:00;99411.19;;;-7.07;74.63
13476;BME280;6810;63.824;20.288;2023-03-25T03:40:30;99412.97;;;-7.09;74.96
13476;BME280;6810;63.824;20.288;2023-03-25T03:43:02;99403.53;;;-7.18;74.47
13476;BME280;6810;63.824;20.288;2023-03-25T03:48:07;99418.16;;;-7.12;74.30
13476;BME280;6810;63.824;20.288;2023-03-25T03:50:40;99401.00;;;-7.24;74.49
13476;BME280;6810;63.824;20.288;2023-03-25T03:53:15;99414.75;;;-7.19;74.73
13476;BME280;6810;63.824;20.288;2023-03-25T03:56:07;99376.22;;;-7.48;74.50
13476;BME280;6810;63.824;20.288;2023-03-25T03:58:38;99423.38;;;-7.17;74.97
13476;BME280;6810;63.824;20.288;2023-03-25T04:01:38;99425.97;;;-7.18;74.50
13476;BME280;6810;63.824;20.288;2023-03-25T04:04:21;99428.59;;;-7.20;74.46
13476;BME280;6810;63.824;20.288;2023-03-25T04:10:04;99426.88;;;-7.23;74.78
13476;BME280;6810;63.824;20.288;2023-03-25T04:12:37;99420.03;;;-7.28;74.46
13476;BME280;6810;63.824;20.288;2023-03-25T04:15:07;99422.63;;;-7.30;74.68
13476;BME280;6810;63.824;20.288;2023-03-25T04:17:34;99416.63;;;-7.35;74.46
13476;BME280;6810;63.824;20.288;2023-03-25T04:20:02;99439.00;;;-7.28;74.66
13476;BME280;6810;63.824;20.288;2023-03-25T04:22:34;99409.81;;;-7.43;74.33
13476;BME280;6810;63.824;20.288;2023-03-25T04:25:05;99415.78;;;-7.40;74.73
13476;BME280;6810;63.824;20.288;2023-03-25T04:27:32;99433.84;;;-7.31;75.10
13476;BME280;6810;63.824;20.288;2023-03-25T04:30:05;99449.38;;;-7.31;74.78
13476;BME280;6810;63.824;20.288;2023-03-25T04:32:32;99445.03;;;-7.30;74.79
13476;BME280;6810;63.824;20.288;2023-03-25T04:35:00;99448.50;;;-7.31;74.92
13476;BME280;6810;63.824;20.288;2023-03-25T04:37:28;99448.53;;;-7.33;74.66
13476;BME280;6810;63.824;20.288;2023-03-25T04:39:55;99452.81;;;-7.30;75.05
13476;BME280;6810;63.824;20.288;2023-03-25T04:42:26;99461.44;;;-7.31;75.34
13476;BME280;6810;63.824;20.288;2023-03-25T04:44:59;99464.03;;;-7.30;74.84
13476;BME280;6810;63.824;20.288;2023-03-25T04:47:26;99440.91;;;-7.51;75.23
13476;BME280;6810;63.824;20.288;2023-03-25T04:49:54;99446.09;;;-7.54;75.10
13476;BME280;6810;63.824;20.288;2023-03-25T04:52:21;99473.50;;;-7.32;74.76
13476;BME280;6810;63.824;20.288;2023-03-25T04:54:48;99485.59;;;-7.31;75.14
13476;BME280;6810;63.824;20.288;2023-03-25T04:57:15;99476.97;;;-7.31;74.32
13476;BME280;6810;63.824;20.288;2023-03-25T04:59:42;99486.44;;;-7.32;74.88
13476;BME280;6810;63.824;20.288;2023-03-25T05:02:10;99430.66;;;-7.66;74.83
13476;BME280;6810;63.824;20.288;2023-03-25T05:04:39;99499.38;;;-7.32;74.55
13476;BME280;6810;63.824;20.288;2023-03-25T05:07:13;99494.25;;;-7.36;74.94
13476;BME280;6810;63.824;20.288;2023-03-25T05:09:42;99434.19;;;-7.79;74.45
13476;BME280;6810;63.824;20.288;2023-03-25T05:12:09;99511.47;;;-7.32;74.27
13476;BME280;6810;63.824;20.288;2023-03-25T05:14:37;99515.78;;;-7.33;74.71
13476;BME280;6810;63.824;20.288;2023-03-25T05:17:04;99510.59;;;-7.33;74.68
13476;BME280;6810;63.824;20.288;2023-03-25T05:19:31;99512.38;;;-7.41;74.48
13476;BME280;6810;63.824;20.288;2023-03-25T05:22:01;99524.41;;;-7.32;74.97
13476;BME280;6810;63.824;20.288;2023-03-25T05:24:29;99529.59;;;-7.32;74.53
13476;BME280;6810;63.824;20.288;2023-03-25T05:26:56;99524.44;;;-7.35;74.52
13476;BME280;6810;63.824;20.288;2023-03-25T05:29:23;99538.19;;;-7.33;74.37
13476;BME280;6810;63.824;20.288;2023-03-25T05:31:50;99545.97;;;-7.33;74.62
13476;BME280;6810;63.824;20.288;2023-03-25T05:34:17;99541.72;;;-7.42;74.31
13476;BME280;6810;63.824;20.288;2023-03-25T05:36:46;99558.03;;;-7.32;74.82
13476;BME280;6810;63.824;20.288;2023-03-25T05:39:13;99552.00;;;-7.33;74.25
13476;BME280;6810;63.824;20.288;2023-03-25T05:41:41;99552.00;;;-7.31;74.41
13476;BME280;6810;63.824;20.288;2023-03-25T05:44:08;99557.16;;;-7.31;74.43
13476;BME280;6810;63.824;20.288;2023-03-25T05:46:35;99549.41;;;-7.31;74.29
13476;BME280;6810;63.824;20.288;2023-03-25T05:49:02;99548.53;;;-7.30;74.77
13476;BME280;6810;63.824;20.288;2023-03-25T05:51:33;99552.84;;;-7.31;74.80
13476;BME280;6810;63.824;20.288;2023-03-25T05:54:04;99553.69;;;-7.29;74.37
13476;BME280;6810;63.824;20.288;2023-03-25T05:56:38;99558.88;;;-7.29;74.03
13476;BME280;6810;63.824;20.288;2023-03-25T05:59:05;99554.59;;;-7.33;74.46
13476;BME280;6810;63.824;20.288;2023-03-25T06:01:32;99563.19;;;-7.28;74.28
13476;BME280;6810;63.824;20.288;2023-03-25T06:04:00;99570.06;;;-7.25;74.33
13476;BME280;6810;63.824;20.288;2023-03-25T06:06:30;99563.16;;;-7.25;74.47
13476;BME280;6810;63.824;20.288;2023-03-25T06:09:01;99571.78;;;-7.24;74.20
13476;BME280;6810;63.824;20.288;2023-03-25T06:11:28;99563.16;;;-7.25;74.12
13476;BME280;6810;63.824;20.288;2023-03-25T06:13:55;99564.88;;;-7.24;74.31
13476;BME280;6810;63.824;20.288;2023-03-25T06:16:24;99568.31;;;-7.22;74.03
13476;BME280;6810;63.824;20.288;2023-03-25T06:18:56;99574.34;;;-7.21;74.35
13476;BME280;6810;63.824;20.288;2023-03-25T06:21:28;99579.50;;;-7.20;74.22
13476;BME280;6810;63.824;20.288;2023-03-25T06:23:56;99558.06;;;-7.35;74.32
13476;BME280;6810;63.824;20.288;2023-03-25T06:26:24;99552.91;;;-7.43;74.23
13476;BME280;6810;63.824;20.288;2023-03-25T06:28:52;99595.00;;;-7.15;74.39
13476;BME280;6810;63.824;20.288;2023-03-25T06:31:23;99585.59;;;-7.25;74.31
13476;BME280;6810;63.824;20.288;2023-03-25T06:33:54;99608.81;;;-7.13;74.33
13476;BME280;6810;63.824;20.288;2023-03-25T06:36:22;99578.72;;;-7.29;74.00
13476;BME280;6810;63.824;20.288;2023-03-25T06:38:52;99611.38;;;-7.13;74.49
13476;BME280;6810;63.824;20.288;2023-03-25T06:41:20;99575.31;;;-7.39;74.38
13476;BME280;6810;63.824;20.288;2023-03-25T06:44:11;99555.50;;;-7.43;73.83
13476;BME280;6810;63.824;20.288;2023-03-25T06:46:39;99630.31;;;-7.03;74.10
13476;BME280;6810;63.824;20.288;2023-03-25T06:49:17;99626.88;;;-7.08;74.14
13476;BME280;6810;63.824;20.288;2023-03-25T06:51:44;99633.78;;;-7.01;74.09
13476;BME280;6810;63.824;20.288;2023-03-25T06:54:11;99581.31;;;-7.31;74.29
13476;BME280;6810;63.824;20.288;2023-03-25T06:56:38;99638.06;;;-6.97;74.08
13476;BME280;6810;63.824;20.288;2023-03-25T06:59:05;99640.63;;;-6.94;74.09
13476;BME280;6810;63.824;20.288;2023-03-25T07:01:32;99634.56;;;-6.93;74.04
13476;BME280;6810;63.824;20.288;2023-03-25T07:03:59;99638.88;;;-6.92;74.04
13476;BME280;6810;63.824;20.288;2023-03-25T07:06:26;99629.41;;;-6.98;74.05
13476;BME280;6810;63.824;20.288;2023-03-25T07:08:53;99647.47;;;-6.87;73.99
13476;BME280;6810;63.824;20.288;2023-03-25T07:11:28;99637.09;;;-6.84;73.97
13476;BME280;6810;63.824;20.288;2023-03-25T07:13:56;99633.69;;;-6.89;73.91
13476;BME280;6810;63.824;20.288;2023-03-25T07:16:26;99644.81;;;-6.80;73.67
13476;BME280;6810;63.824;20.288;2023-03-25T07:18:53;99646.56;;;-6.79;73.67
13476;BME280;6810;63.824;20.288;2023-03-25T07:21:22;99626.75;;;-6.87;73.41
13476;BME280;6810;63.824;20.288;2023-03-25T07:23:49;99576.06;;;-7.17;73.61
13476;BME280;6810;63.824;20.288;2023-03-25T07:26:17;99636.22;;;-6.80;73.56
13476;BME280;6810;63.824;20.288;2023-03-25T07:28:44;99649.94;;;-6.66;73.79
13476;BME280;6810;63.824;20.288;2023-03-25T07:31:12;99648.22;;;-6.69;73.58
13476;BME280;6810;63.824;20.288;2023-03-25T07:33:40;99620.69;;;-6.80;73.92
13476;BME280;6810;63.824;20.288;2023-03-25T07:36:09;99642.13;;;-6.62;73.66
13476;BME280;6810;63.824;20.288;2023-03-25T07:38:37;99649.00;;;-6.56;73.88
13476;BME280;6810;63.824;20.288;2023-03-25T07:41:11;99655.88;;;-6.54;73.46
13476;BME280;6810;63.824;20.288;2023-03-25T07:43:48;99659.31;;;-6.50;73.66
13476;BME280;6810;63.824;20.288;2023-03-25T07:46:25;99657.56;;;-6.48;73.54
13476;BME280;6810;63.824;20.288;2023-03-25T07:48:52;99653.25;;;-6.51;73.34
13476;BME280;6810;63.824;20.288;2023-03-25T07:51:19;99677.38;;;-6.41;73.44
13476;BME280;6810;63.824;20.288;2023-03-25T07:53:46;99673.91;;;-6.39;73.53
13476;BME280;6810;63.824;20.288;2023-03-25T07:56:13;99675.63;;;-6.36;73.02
13476;BME280;6810;63.824;20.288;2023-03-25T07:58:41;99682.50;;;-6.34;73.55
13476;BME280;6810;63.824;20.288;2023-03-25T08:01:10;99694.56;;;-6.28;73.44
13476;BME280;6810;63.824;20.288;2023-03-25T08:03:37;99697.13;;;-6.25;73.07
13476;BME280;6810;63.824;20.288;2023-03-25T08:06:06;99666.16;;;-6.42;73.64
13476;BME280;6810;63.824;20.288;2023-03-25T08:08:33;99693.59;;;-6.18;73.45
13476;BME280;6810;63.824;20.288;2023-03-25T08:11:01;99693.56;;;-6.15;73.37
13476;BME280;6810;63.824;20.288;2023-03-25T08:13:28;99710.81;;;-6.11;73.25
13476;BME280;6810;63.824;20.288;2023-03-25T08:15:55;99707.34;;;-6.07;73.28
13476;BME280;6810;63.824;20.288;2023-03-25T08:18:23;99703.91;;;-6.12;72.97
13476;BME280;6810;63.824;20.288;2023-03-25T08:20:50;99701.28;;;-6.08;73.30
13476;BME280;6810;63.824;20.288;2023-03-25T08:23:18;99678.09;;;-6.24;72.94
13476;BME280;6810;63.824;20.288;2023-03-25T08:25:47;99721.91;;;-5.94;73.13
13476;BME280;6810;63.824;20.288;2023-03-25T08:28:17;99717.59;;;-5.95;73.12
13476;BME280;6810;63.824;20.288;2023-03-25T08:30:51;99710.69;;;-5.93;73.08
13476;BME280;6810;63.824;20.288;2023-03-25T08:33:25;99726.97;;;-5.82;73.11
13476;BME280;6810;63.824;20.288;2023-03-25T08:36:00;99723.47;;;-5.78;72.90
13476;BME280;6810;63.824;20.288;2023-03-25T08:38:28;99733.81;;;-5.74;72.87
13476;BME280;6810;63.824;20.288;2023-03-25T08:41:01;99724.34;;;-5.79;72.92
13476;BME280;6810;63.824;20.288;2023-03-25T08:43:28;99746.72;;;-5.66;73.08
13476;BME280;6810;63.824;20.288;2023-03-25T08:45:55;99751.84;;;-5.62;72.96
13476;BME280;6810;63.824;20.288;2023-03-25T08:48:23;99677.00;;;-5.98;73.08
13476;BME280;6810;63.824;20.288;2023-03-25T08:50:50;99743.09;;;-5.53;72.51
13476;BME280;6810;63.824;20.288;2023-03-25T08:53:17;99757.81;;;-5.51;72.68
13476;BME280;6810;63.824;20.288;2023-03-25T08:55:44;99771.56;;;-5.43;72.88
13476;BME280;6810;63.824;20.288;2023-03-25T08:58:11;99761.16;;;-5.38;72.52
13476;BME280;6810;63.824;20.288;2023-03-25T09:00:38;99765.44;;;-5.36;72.52
13476;BME280;6810;63.824;20.288;2023-03-25T09:03:05;99778.34;;;-5.29;72.73
13476;BME280;6810;63.824;20.288;2023-03-25T09:05:35;99690.56;;;-5.72;72.70
13476;BME280;6810;63.824;20.288;2023-03-25T09:08:22;99774.72;;;-5.16;73.21
13476;BME280;6810;63.824;20.288;2023-03-25T09:11:16;99788.50;;;-5.08;72.18
13476;BME280;6810;63.824;20.288;2023-03-25T09:14:03;99782.41;;;-5.03;72.19
13476;BME280;6810;63.824;20.288;2023-03-25T09:16:50;99794.44;;;-4.96;72.89
13476;BME280;6810;63.824;20.288;2023-03-25T09:19:37;99797.88;;;-4.94;72.64
13476;BME280;6810;63.824;20.288;2023-03-25T09:22:24;99802.94;;;-4.83;72.59
13476;BME280;6810;63.824;20.288;2023-03-25T09:25:11;99805.44;;;-4.74;72.28
13476;BME280;6810;63.824;20.288;2023-03-25T09:27:58;99810.53;;;-4.67;72.79
13476;BME280;6810;63.824;20.288;2023-03-25T09:30:45;99741.66;;;-4.99;71.98
13476;BME280;6810;63.824;20.288;2023-03-25T09:33:32;99811.19;;;-4.50;71.82
13476;BME280;6810;63.824;20.288;2023-03-25T09:36:19;99815.44;;;-4.44;71.75
13476;BME280;6810;63.824;20.288;2023-03-25T09:39:06;99811.94;;;-4.40;72.37
13476;BME280;6810;63.824;20.288;2023-03-25T09:41:56;99825.56;;;-4.23;71.95
13476;BME280;6810;63.824;20.288;2023-03-25T09:51:35;99824.19;;;-3.88;72.11
13476;BME280;6810;63.824;20.288;2023-03-25T09:54:26;99826.63;;;-3.77;71.66
13476;BME280;6810;63.824;20.288;2023-03-25T09:57:23;99821.19;;;-3.64;71.93
13476;BME280;6810;63.824;20.288;2023-03-25T10:00:19;99827.03;;;-3.49;71.89
13476;BME280;6810;63.824;20.288;2023-03-25T10:03:26;99820.00;;;-3.43;71.93
13476;BME280;6810;63.824;20.288;2023-03-25T10:06:17;99838.69;;;-3.18;71.11
13476;BME280;6810;63.824;20.288;2023-03-25T10:09:56;99815.16;;;-3.14;71.30
13476;BME280;6810;63.824;20.288;2023-03-25T10:12:34;99843.22;;;-2.82;71.26
13476;BME280;6810;63.824;20.288;2023-03-25T10:27:43;99854.72;;;-2.07;70.36
13476;BME280;6810;63.824;20.288;2023-03-25T10:30:34;99856.13;;;-1.91;71.31
13476;BME280;6810;63.824;20.288;2023-03-25T10:33:38;99854.94;;;-1.78;70.98
13476;BME280;6810;63.824;20.288;2023-03-25T10:36:32;99852.84;;;-1.62;71.04
13476;BME280;6810;63.824;20.288;2023-03-25T10:39:21;99855.13;;;-1.49;70.29
13476;BME280;6810;63.824;20.288;2023-03-25T10:42:30;99847.97;;;-1.41;70.40
13476;BME280;6810;63.824;20.288;2023-03-25T10:45:19;99851.84;;;-1.22;70.48
13476;BME280;6810;63.824;20.288;2023-03-25T10:51:08;99866.84;;;-0.95;69.90
13476;BME280;6810;63.824;20.288;2023-03-25T10:53:56;99863.88;;;-0.81;69.62
13476;BME280;6810;63.824;20.288;2023-03-25T10:56:46;99869.56;;;-0.67;69.47
13476;BME280;6810;63.824;20.288;2023-03-25T10:59:43;99867.47;;;-0.55;70.05
13476;BME280;6810;63.824;20.288;2023-03-25T11:02:33;99815.72;;;-0.74;69.32
13476;BME280;6810;63.824;20.288;2023-03-25T11:05:22;99869.44;;;-0.31;69.03
13476;BME280;6810;63.824;20.288;2023-03-25T11:08:10;99862.38;;;-0.29;69.39
13476;BME280;6810;63.824;20.288;2023-03-25T11:10:58;99876.84;;;-0.16;69.83
13476;BME280;6810;63.824;20.288;2023-03-25T11:13:45;99886.09;;;-0.04;69.18
13476;BME280;6810;63.824;20.288;2023-03-25T11:16:35;99873.78;;;-0.01;69.05
13476;BME280;6810;63.824;20.288;2023-03-25T11:20:15;99880.41;;;0.11;69.13
13476;BME280;6810;63.824;20.288;2023-03-25T11:22:44;99869.94;;;0.11;69.34
13476;BME280;6810;63.824;20.288;2023-03-25T11:25:37;99884.25;;;0.29;69.89
13476;BME280;6810;63.824;20.288;2023-03-25T11:28:38;99888.31;;;0.39;70.38
13476;BME280;6810;63.824;20.288;2023-03-25T11:31:27;99889.75;;;0.49;70.09
13476;BME280;6810;63.824;20.288;2023-03-25T11:34:21;99891.22;;;0.57;70.35
13476;BME280;6810;63.824;20.288;2023-03-25T11:37:20;99867.19;;;0.43;70.51
13476;BME280;6810;63.824;20.288;2023-03-25T11:40:13;99902.22;;;0.68;69.72
13476;BME280;6810;63.824;20.288;2023-03-25T11:43:01;99900.38;;;0.72;70.87
13476;BME280;6810;63.824;20.288;2023-03-25T11:45:49;99893.25;;;0.75;71.02
13476;BME280;6810;63.824;20.288;2023-03-25T11:48:38;99900.91;;;0.81;71.26
13476;BME280;6810;63.824;20.288;2023-03-25T11:51:31;99907.75;;;0.87;71.80
13476;BME280;6810;63.824;20.288;2023-03-25T11:54:18;99908.44;;;0.92;71.62
13476;BME280;6810;63.824;20.288;2023-03-25T11:57:10;99910.31;;;0.88;72.53
13476;BME280;6810;63.824;20.288;2023-03-25T12:06:15;99922.75;;;1.09;72.86
13476;BME280;6810;63.824;20.288;2023-03-25T12:09:08;99902.78;;;1.05;73.33
13476;BME280;6810;63.824;20.288;2023-03-25T12:15:18;99929.88;;;1.30;74.21
13476;BME280;6810;63.824;20.288;2023-03-25T12:18:34;99929.75;;;1.35;74.23
13476;BME280;6810;63.824;20.288;2023-03-25T12:27:25;99933.63;;;1.49;75.05
13476;BME280;6810;63.824;20.288;2023-03-25T12:30:44;99929.91;;;1.55;75.75
13476;BME280;6810;63.824;20.288;2023-03-25T12:36:42;99926.09;;;1.65;76.04
13476;BME280;6810;63.824;20.288;2023-03-25T12:54:35;99948.22;;;2.06;77.63
13476;BME280;6810;63.824;20.288;2023-03-25T13:00:55;99950.28;;;2.21;79.03
13476;BME280;6810;63.824;20.288;2023-03-25T13:09:47;99962.59;;;2.43;79.32
13476;BME280;6810;63.824;20.288;2023-03-25T13:12:48;99972.94;;;2.48;79.00
13476;BME280;6810;63.824;20.288;2023-03-25T13:15:41;99972.81;;;2.51;78.82
13476;BME280;6810;63.824;20.288;2023-03-25T13:18:43;99970.88;;;2.56;79.11
13476;BME280;6810;63.824;20.288;2023-03-25T13:21:36;99939.84;;;2.42;79.74
13476;BME280;6810;63.824;20.288;2023-03-25T13:24:37;99976.41;;;2.71;80.06
13476;BME280;6810;63.824;20.288;2023-03-25T13:27:30;99983.25;;;2.75;80.47
13476;BME280;6810;63.824;20.288;2023-03-25T13:30:40;99964.38;;;2.66;79.72
13476;BME280;6810;63.824;20.288;2023-03-25T13:33:32;99983.88;;;2.82;79.65
13476;BME280;6810;63.824;20.288;2023-03-25T13:36:41;99991.72;;;2.83;80.12
13476;BME280;6810;63.824;20.288;2023-03-25T13:39:45;99910.97;;;2.41;79.95
13476;BME280;6810;63.824;20.288;2023-03-25T13:45:57;99989.53;;;2.94;81.08
13476;BME280;6810;63.824;20.288;2023-03-25T13:48:53;99987.72;;;2.96;81.89
13476;BME280;6810;63.824;20.288;2023-03-25T13:51:42;99991.19;;;2.97;81.48
13476;BME280;6810;63.824;20.288;2023-03-25T13:54:33;99993.75;;;2.98;82.65
13476;BME280;6810;63.824;20.288;2023-03-25T14:06:57;99979.03;;;2.71;82.94
13476;BME280;6810;63.824;20.288;2023-03-25T14:13:04;99991.50;;;2.66;83.94
13476;BME280;6810;63.824;20.288;2023-03-25T14:18:52;100001.53;;;2.57;83.14
13476;BME280;6810;63.824;20.288;2023-03-25T14:21:43;100008.84;;;2.49;84.00
13476;BME280;6810;63.824;20.288;2023-03-25T14:24:34;100010.84;;;2.42;84.49
13476;BME280;6810;63.824;20.288;2023-03-25T14:27:27;99999.72;;;2.34;84.52
13476;BME280;6810;63.824;20.288;2023-03-25T14:30:19;100014.09;;;2.26;83.71
13476;BME280;6810;63.824;20.288;2023-03-25T14:33:08;100005.66;;;2.16;84.11
13476;BME280;6810;63.824;20.288;2023-03-25T14:35:55;100011.09;;;2.12;85.33
13476;BME280;6810;63.824;20.288;2023-03-25T14:38:50;100005.19;;;2.05;84.65
13476;BME280;6810;63.824;20.288;2023-03-25T14:44:51;99993.72;;;1.83;85.33
13476;BME280;6810;63.824;20.288;2023-03-25T14:47:51;100017.94;;;1.91;85.37
13476;BME280;6810;63.824;20.288;2023-03-25T14:51:09;99993.13;;;1.75;85.55
13476;BME280;6810;63.824;20.288;2023-03-25T14:57:04;100023.97;;;1.68;86.33
13476;BME280;6810;63.824;20.288;2023-03-25T14:59:59;100029.44;;;1.62;86.11
13476;BME280;6810;63.824;20.288;2023-03-25T15:03:04;100015.78;;;1.51;86.42
13476;BME280;6810;63.824;20.288;2023-03-25T15:05:55;100023.81;;;1.47;85.96
13476;BME280;6810;63.824;20.288;2023-03-25T15:08:54;100033.50;;;1.46;86.74
13476;BME280;6810;63.824;20.288;2023-03-25T15:11:44;100027.56;;;1.40;86.50
13476;BME280;6810;63.824;20.288;2023-03-25T15:14:40;100038.31;;;1.32;86.55
13476;BME280;6810;63.824;20.288;2023-03-25T15:17:42;100043.84;;;1.23;86.67
13476;BME280;6810;63.824;20.288;2023-03-25T15:20:30;100041.44;;;1.17;86.49
13476;BME280;6810;63.824;20.288;2023-03-25T15:26:12;100036.91;;;0.93;86.55
13476;BME280;6810;63.824;20.288;2023-03-25T15:38:06;100051.00;;;0.91;85.44
13476;BME280;6810;63.824;20.288;2023-03-25T15:44:42;100058.50;;;0.74;86.11
13476;BME280;6810;63.824;20.288;2023-03-25T15:47:49;100061.44;;;0.63;86.28
13476;BME280;6810;63.824;20.288;2023-03-25T15:54:45;99999.50;;;-0.01;86.83
13476;BME280;6810;63.824;20.288;2023-03-25T15:57:30;100053.50;;;0.36;87.12
13476;BME280;6810;63.824;20.288;2023-03-25T16:00:23;100095.66;;;0.59;87.11
13476;BME280;6810;63.824;20.288;2023-03-25T16:03:19;100099.94;;;0.61;87.09
13476;BME280;6810;63.824;20.288;2023-03-25T16:06:12;100103.47;;;0.60;87.24
13476;BME280;6810;63.824;20.288;2023-03-25T16:09:02;100114.88;;;0.59;87.38
13476;BME280;6810;63.824;20.288;2023-03-25T16:11:49;100077.03;;;0.37;87.79
13476;BME280;6810;63.824;20.288;2023-03-25T16:14:37;100120.16;;;0.58;87.56
13476;BME280;6810;63.824;20.288;2023-03-25T16:17:29;100100.47;;;0.42;87.70
13476;BME280;6810;63.824;20.288;2023-03-25T16:20:21;100083.56;;;0.23;87.98
13476;BME280;6810;63.824;20.288;2023-03-25T16:23:17;100117.88;;;0.46;88.14
13476;BME280;6810;63.824;20.288;2023-03-25T16:26:05;100134.34;;;0.49;87.76
13476;BME280;6810;63.824;20.288;2023-03-25T16:28:52;100153.56;;;0.50;87.78
13476;BME280;6810;63.824;20.288;2023-03-25T16:31:39;100150.13;;;0.48;87.69
13476;BME280;6810;63.824;20.288;2023-03-25T16:34:32;100160.66;;;0.46;87.90
13476;BME280;6810;63.824;20.288;2023-03-25T16:37:20;100156.31;;;0.45;87.84